• Join FlightAware (Why Join?)
  • Login
  • US Flag 
01:46AM EDT


 

Airport Tracker/Info


-or-


 

Live Flight TrackerFlight Track Log ✈ AAL2345 ✈ 19-Jul-2013 ✈ KORD - KDFW

Flight Track Log - Related Links

Times and Time Zones

All times are in EDT time to prevent confusion due to time zone crossing. See the AAL2345 flight status page for this flight to view local times or setup timezone preferences in your user account.

Time Position Orientation Groundspeed Altitude Reporting Facility
EDT Latitude Longitude Course Direction KTS MPH feet Rate Location/Type
07:02PM 41.9333 -87.9333 236° Southwest 179 206 2,300  Level Chicago TRACON
07:03PM 41.9333 -88.0167 270° West 215 247 4,000 1,980 Climbing Chicago TRACON
07:04PM 41.9000 -88.1869 270° West  Level FlightAware Approximate
07:05PM 41.8763 -88.3342 242° Southwest  Level FlightAware Approximate
07:05PM 41.9283 -88.1286 267° West 245 282 7,200  Level Chicago Center
07:06PM 41.8350 -88.4752 255° West  Level FlightAware Approximate
07:06PM 41.9136 -88.2431 260° West 262 302 10,100  Level Chicago Center
07:07PM 41.8029 -88.6214 254° West  Level FlightAware Approximate
07:07PM 41.8872 -88.3467 251° West 292 336 11,500  Level Chicago Center
07:08PM 41.7164 -88.7170 236° Southwest  Level Estimated
07:08PM 41.8600 -88.4664 253° West 325 374 13,400  Level Chicago Center
07:09PM 41.8294 -88.5931 252° West 354 407 15,700 2,280 Climbing Chicago Center
07:10PM 41.7922 -88.7472 252° West 365 420 18,200 1,980 Climbing Chicago Center
07:11PM 41.7603 -88.8811 252° West 378 435 19,900 1,560 Climbing Chicago Center
07:12PM 41.7272 -89.0192 252° West 390 449 21,500 1,500 Climbing Chicago Center
07:13PM 41.6933 -89.1597 252° West 398 458 23,000 1,380 Climbing Chicago Center
07:14PM 41.6578 -89.3050 252° West 412 474 24,400 1,500 Climbing Chicago Center
07:15PM 41.6147 -89.4811 252° West 420 483 26,200 1,320 Climbing Chicago Center
07:16PM 41.5833 -89.6086 252° West 420 483 27,200 1,200 Climbing Chicago Center
07:17PM 41.5389 -89.7853 251° West 420 483 28,800 1,260 Climbing Chicago Center
07:18PM 41.5019 -89.9333 252° West 420 483 29,900 960 Climbing Chicago Center
07:19PM 41.4650 -90.0803 251° West 421 484 30,900 900 Climbing Chicago Center
07:20PM 41.4275 -90.2272 251° West 421 484 31,800 480 Climbing Chicago Center
07:21PM 41.3906 -90.3739 251° West 421 484 32,000 60 Climbing Chicago Center
07:22PM 41.3536 -90.5192 251° West 418 481 32,000  Level Chicago Center
07:23PM 41.2933 -90.6889 245° Southwest 425 489 32,000  Level Chicago Center
07:24PM 41.2217 -90.8092 232° Southwest 417 480 32,000  Level Chicago Center
07:25PM 41.1475 -90.9322 231° Southwest 424 488 32,000  Level Chicago Center
07:27PM 41.0756 -91.0544 232° Southwest 423 487 32,000  Level Chicago Center
07:28PM 41.0025 -91.1781 232° Southwest 426 490 32,000  Level Chicago Center
07:29PM 40.9136 -91.3264 232° Southwest 428 493 32,000  Level Chicago Center
07:30PM 40.8381 -91.4506 231° Southwest 430 495 32,000  Level Chicago Center
07:31PM 40.7625 -91.5722 231° Southwest 432 497 32,000  Level Chicago Center
07:32PM 40.6892 -91.6947 232° Southwest 430 495 32,000  Level Chicago Center
07:33PM 40.6144 -91.8164 231° Southwest 430 495 32,000  Level Chicago Center
07:34PM 40.5400 -91.9406 232° Southwest 435 501 32,000  Level Chicago Center
07:35PM 40.4489 -92.0875 231° Southwest 435 501 32,000  Level Chicago Center
07:36PM 40.3878 -92.1847 230° Southwest 434 499 32,000  Level Kansas City Center
07:37PM 40.3111 -92.3086 231° Southwest 437 503 32,000  Level Kansas City Center
07:38PM 40.2294 -92.4350 230° Southwest 438 504 32,000  Level Kansas City Center
07:39PM 40.1422 -92.5761 231° Southwest 443 510 32,000  Level Kansas City Center
07:40PM 40.0594 -92.6700 221° Southwest 443 510 32,000  Level Kansas City Center
07:41PM 39.9433 -92.7908 219° Southwest 448 516 32,000  Level Kansas City Center
07:42PM 39.8481 -92.8928 219° Southwest 449 517 32,000  Level Kansas City Center
07:43PM 39.7519 -92.9953 219° Southwest 451 519 32,000  Level Kansas City Center
07:44PM 39.6533 -93.0931 217° Southwest 450 518 32,000  Level Kansas City Center
07:45PM 39.5558 -93.1922 218° Southwest 449 517 32,000  Level Kansas City Center
07:46PM 39.4397 -93.3111 218° Southwest 448 516 32,000  Level Kansas City Center
07:47PM 39.3436 -93.4108 219° Southwest 447 514 32,000  Level Kansas City Center
07:48PM 39.2442 -93.5161 219° Southwest 443 510 32,000  Level Kansas City Center
07:49PM 39.1508 -93.6106 218° Southwest 443 510 32,000  Level Kansas City Center
07:50PM 39.0431 -93.7203 218° Southwest 441 507 32,000  Level Kansas City Center
07:51PM 38.9506 -93.8153 219° Southwest 443 510 32,000  Level Kansas City Center
07:52PM 38.8425 -93.9225 218° Southwest 439 505 32,000  Level Kansas City Center
07:53PM 38.7508 -94.0167 219° Southwest 440 506 32,000 120 Level Kansas City Center
07:54PM 38.6442 -94.1233 218° Southwest 435 501 32,300 420 Climbing Kansas City Center
07:55PM 38.5522 -94.2128 217° Southwest 433 498 32,900 600 Climbing Kansas City Center
07:56PM 38.4614 -94.3008 217° Southwest 429 494 33,600 540 Climbing Kansas City Center
07:57PM 38.3553 -94.4064 218° Southwest 430 495 34,000 180 Climbing Kansas City Center
07:58PM 38.2631 -94.4919 216° Southwest 428 493 34,000  Level Kansas City Center
07:59PM 38.1417 -94.5714 207° Southwest 436 502 34,000  Level Kansas City Center
08:00PM 38.0389 -94.6383 207° Southwest 432 497 34,000  Level Kansas City Center
08:01PM 37.9197 -94.7131 206° Southwest 429 494 34,000  Level Kansas City Center
08:02PM 37.8164 -94.7781 206° Southwest 430 495 34,000  Level Kansas City Center
08:04PM 37.7119 -94.8442 207° Southwest 435 501 34,000  Level Kansas City Center
08:05PM 37.6019 -94.9139 207° Southwest 434 499 34,000  Level Kansas City Center
08:06PM 37.4714 -94.9969 207° Southwest 436 502 34,000  Level Kansas City Center
08:07PM 37.3628 -95.0669 207° Southwest 438 504 34,000  Level Kansas City Center
08:08PM 37.2522 -95.1353 206° Southwest 442 509 34,000  Level Kansas City Center
08:09PM 37.1444 -95.2092 209° Southwest 440 506 34,000  Level Kansas City Center
08:10PM 37.0411 -95.2928 213° Southwest 441 507 34,000  Level Kansas City Center
08:11PM 36.9364 -95.3756 212° Southwest 444 511 34,000  Level Kansas City Center
08:12PM 36.8336 -95.4586 213° Southwest 442 509 34,000  Level Kansas City Center
08:13PM 36.7114 -95.5583 213° Southwest 441 507 34,000  Level Kansas City Center
08:14PM 36.6094 -95.6433 214° Southwest 443 510 34,000  Level Kansas City Center
08:15PM 36.4936 -95.7139 206° Southwest 450 518 34,000  Level Kansas City Center
08:16PM 36.3828 -95.7694 202° Southwest 452 520 34,000  Level Kansas City Center
08:17PM 36.2675 -95.8206 200° South 448 516 34,000  Level Kansas City Center
08:18PM 36.1208 -95.8519 190° South 450 518 34,000  Level Kansas City Center
08:19PM 35.9975 -95.8656 185° South 448 516 34,000 -60 Level Kansas City Center
08:20PM 35.8744 -95.8483 174° South 447 514 33,900 -780 Descending Kansas City Center
08:21PM 35.7536 -95.8242 171° South 442 509 32,400 -1,380 Descending Kansas City Center
08:22PM 35.6339 -95.7850 165° South 443 510 31,100 -900 Descending Kansas City Center
08:23PM 35.5453 -95.7400 158° South 448 516 31,000 -120 Descending Fort Worth Center
08:24PM 35.4256 -95.6864 160° South 448 516 31,000  Level Fort Worth Center
08:25PM 35.3103 -95.6328 159° South 448 516 31,000  Level Fort Worth Center
08:26PM 35.1906 -95.5769 159° South 448 516 31,000  Level Fort Worth Center
08:27PM 35.0692 -95.5414 167° South 448 516 31,000  Level Fort Worth Center
08:28PM 34.9456 -95.5111 169° South 448 516 31,000 -360 Level Fort Worth Center
08:29PM 34.8200 -95.4811 169° South 453 521 30,300 -840 Descending Fort Worth Center
08:30PM 34.6969 -95.4939 185° South 440 506 29,400 -1,020 Descending Fort Worth Center
08:31PM 34.6103 -95.5539 210° Southwest 430 495 28,300 -1,620 Descending Fort Worth Center
08:32PM 34.4842 -95.6425 210° Southwest 437 503 26,200 -2,100 Descending Fort Worth Center
08:33PM 34.3789 -95.7200 211° Southwest 437 503 24,200 -1,980 Descending Fort Worth Center
08:34PM 34.2756 -95.7925 210° Southwest 438 504 22,300 -1,980 Descending Fort Worth Center
08:35PM 34.1764 -95.8647 211° Southwest 433 498 20,300 -1,800 Descending Fort Worth Center
08:36PM 34.0978 -95.9186 210° Southwest 421 484 18,700 -1,800 Descending Fort Worth Center
08:37PM 34.0003 -95.9856 210° Southwest 403 464 16,800 -1,860 Descending Fort Worth Center
08:38PM 33.9072 -96.0494 210° Southwest 391 450 15,000 -1,560 Descending Fort Worth Center
08:39PM 33.8181 -96.1133 211° Southwest 386 444 13,700 -1,260 Descending Fort Worth Center
08:40PM 33.7311 -96.1722 209° Southwest 379 436 12,600 -1,080 Descending Fort Worth Center
08:41PM 33.6461 -96.2283 209° Southwest 368 423 11,600 -780 Descending Fort Worth Center
08:42PM 33.5611 -96.2892 211° Southwest 357 411 11,100 -300 Descending Fort Worth Center
08:43PM 33.4803 -96.3475 211° Southwest 352 405 11,000 -360 Descending Fort Worth Center
08:44PM 33.4053 -96.3958 208° Southwest 337 388 10,400 -1,080 Descending Fort Worth Center
08:45PM 33.3333 -96.4667 219° Southwest 302 348 8,900 -1,500 Descending Dallas / Fort Worth TRACON
08:46PM 33.3167 -96.5667 259° West 289 333 7,400 -1,440 Descending Dallas / Fort Worth TRACON
08:47PM 33.2819 -96.6431 241° Southwest 296 341 6,100 -1,260 Descending Fort Worth Center
08:48PM 33.2531 -96.7278 248° West 290 334 5,000 -600 Descending Fort Worth Center
08:49PM 33.2181 -96.8100 243° Southwest 280 322 5,000  Level Fort Worth Center
08:50PM 33.1578 -96.8800 224° Southwest 280 322 5,000 -540 Level Fort Worth Center
08:51PM 33.1142 -96.9347 226° Southwest 270 311 4,000 -1,020 Descending Fort Worth Center